Time;durP1;ratioP1;P1;durP2;ratioP2;P2;SDS_P1;SDS_P2;PMS_P1;PMS_P2;Temp;Humidity;BMP_temperature;BMP_pressure;BME280_temperature;BME280_humidity;BME280_pressure;Samples;Min_cycle;Max_cycle;Signal;HPM_P1;HPM_P2
2021/04/08 00:00:56;;;;;;;10.57;3.40;;;;;;;;;;2037885;29;20661;-57
2021/04/08 00:01:57;;;;;;;9.20;3.83;;;;;;;;;;2041318;29;20184;-57
2021/04/08 00:02:57;;;;;;;10.47;4.23;;;;;;;;;;2040394;29;20611;-56
2021/04/08 00:03:58;;;;;;;9.37;3.50;;;;;;;;;;2040056;29;20619;-56
2021/04/08 00:04:58;;;;;;;7.90;3.37;;;;;;;;;;2041639;29;20200;-57
2021/04/08 00:05:58;;;;;;;5.03;3.30;;;;;;;;;;2041481;28;20552;-57
2021/04/08 00:06:58;;;;;;;11.47;3.40;;;;;;;;;;2041583;29;20628;-57
2021/04/08 00:07:59;;;;;;;10.73;3.60;;;;;;;;;;2048585;28;20257;-59
2021/04/08 00:08:59;;;;;;;11.50;3.63;;;;;;;;;;2041484;29;20246;-55
2021/04/08 00:09:59;;;;;;;13.97;3.67;;;;;;;;;;2043351;28;20179;-57
2021/04/08 00:10:59;;;;;;;7.63;3.33;;;;;;;;;;2047572;28;20174;-57
2021/04/08 00:12:00;;;;;;;5.63;3.27;;;;;;;;;;2049292;28;20723;-54
2021/04/08 00:13:00;;;;;;;6.40;3.50;;;;;;;;;;2039279;28;20259;-55
2021/04/08 00:14:00;;;;;;;9.73;3.50;;;;;;;;;;2040305;29;20187;-58
2021/04/08 00:15:01;;;;;;;10.00;3.67;;;;;;;;;;2039715;29;20180;-58
2021/04/08 00:16:02;;;;;;;5.90;3.53;;;;;;;;;;2035966;29;20546;-56
2021/04/08 00:17:02;;;;;;;6.50;3.20;;;;;;;;;;2040359;29;20180;-58
2021/04/08 00:18:03;;;;;;;8.13;4.07;;;;;;;;;;2040958;29;20890;-58
2021/04/08 00:19:05;;;;;;;6.77;2.97;;;;;;;;;;2040084;29;20250;-57
2021/04/08 00:20:10;;;;;;;11.00;4.77;;;;;;;;;;2040756;29;20739;-56
2021/04/08 00:21:10;;;;;;;5.93;3.20;;;;;;;;;;2042304;29;20589;-55
2021/04/08 00:22:11;;;;;;;5.33;3.27;;;;;;;;;;2040392;29;20793;-58
2021/04/08 00:23:11;;;;;;;7.33;3.40;;;;;;;;;;2044781;29;20195;-52
2021/04/08 00:24:11;;;;;;;9.87;3.47;;;;;;;;;;2041104;29;20187;-57
2021/04/08 00:25:13;;;;;;;7.17;3.40;;;;;;;;;;2040785;29;20262;-57
2021/04/08 00:26:13;;;;;;;5.37;2.93;;;;;;;;;;2036684;29;20247;-60
2021/04/08 00:27:14;;;;;;;6.50;3.20;;;;;;;;;;2052747;29;20175;-57
2021/04/08 00:28:14;;;;;;;8.53;3.30;;;;;;;;;;2043767;29;20637;-57
2021/04/08 00:29:14;;;;;;;7.53;3.77;;;;;;;;;;2042302;29;20610;-57
2021/04/08 00:30:15;;;;;;;3.57;3.27;;;;;;;;;;2042737;29;20250;-56
2021/04/08 00:31:15;;;;;;;9.27;3.67;;;;;;;;;;2034843;29;20174;-59
2021/04/08 00:32:15;;;;;;;7.00;2.83;;;;;;;;;;2034873;29;20646;-59
2021/04/08 00:33:17;;;;;;;6.20;3.63;;;;;;;;;;2039169;29;20522;-55
2021/04/08 00:34:17;;;;;;;10.40;3.27;;;;;;;;;;2042831;29;20191;-56
2021/04/08 00:35:17;;;;;;;7.90;2.80;;;;;;;;;;2042706;29;20398;-57
2021/04/08 00:36:18;;;;;;;4.03;2.47;;;;;;;;;;2042517;29;20171;-56
2021/04/08 00:37:18;;;;;;;8.57;3.70;;;;;;;;;;2034201;29;20188;-57
2021/04/08 00:38:18;;;;;;;6.60;3.10;;;;;;;;;;2031444;29;20188;-58
2021/04/08 00:39:18;;;;;;;8.47;4.47;;;;;;;;;;2042506;29;20310;-57
2021/04/08 00:40:19;;;;;;;10.03;3.30;;;;;;;;;;2042506;29;20215;-57
2021/04/08 00:41:19;;;;;;;8.47;3.23;;;;;;;;;;2042325;29;20176;-54
2021/04/08 00:42:20;;;;;;;5.70;2.73;;;;;;;;;;2046109;29;20598;-55
2021/04/08 00:43:20;;;;;;;9.90;2.97;;;;;;;;;;2046483;28;20270;-54
2021/04/08 00:44:20;;;;;;;6.37;3.17;;;;;;;;;;2050412;28;20167;-57
2021/04/08 00:45:21;;;;;;;4.43;2.70;;;;;;;;;;2050775;28;20179;-56
2021/04/08 00:46:21;;;;;;;7.00;2.83;;;;;;;;;;2050792;28;20223;-58
2021/04/08 00:47:21;;;;;;;8.17;2.63;;;;;;;;;;2050712;28;20171;-56
2021/04/08 00:48:22;;;;;;;8.23;2.97;;;;;;;;;;2044831;28;20183;-56
2021/04/08 00:49:22;;;;;;;7.27;3.30;;;;;;;;;;2034105;29;20215;-55
2021/04/08 00:50:23;;;;;;;6.53;2.80;;;;;;;;;;2034089;29;20204;-54
2021/04/08 00:51:23;;;;;;;7.10;3.07;;;;;;;;;;2034788;29;20168;-56
2021/04/08 00:52:25;;;;;;;7.97;3.40;;;;;;;;;;2034554;29;20168;-55
2021/04/08 00:53:26;;;;;;;6.20;3.30;;;;;;;;;;2040217;29;20474;-54
2021/04/08 00:54:26;;;;;;;12.00;3.20;;;;;;;;;;2042146;29;20179;-55
2021/04/08 00:55:34;;;;;;;9.17;3.67;;;;;;;;;;2042147;29;20593;-56
2021/04/08 00:56:34;;;;;;;10.07;4.60;;;;;;;;;;2034066;29;20176;-56
2021/04/08 00:57:35;;;;;;;6.97;2.70;;;;;;;;;;2041561;29;20541;-55
2021/04/08 00:58:35;;;;;;;11.10;3.57;;;;;;;;;;2041438;29;20184;-54
2021/04/08 00:59:36;;;;;;;10.27;3.97;;;;;;;;;;2034420;29;20180;-55
2021/04/08 01:00:39;;;;;;;9.20;4.30;;;;;;;;;;2034156;29;20212;-54
2021/04/08 01:01:39;;;;;;;8.30;3.67;;;;;;;;;;2040068;29;20532;-55
2021/04/08 01:02:39;;;;;;;8.77;3.43;;;;;;;;;;2041815;29;20257;-56
2021/04/08 01:03:40;;;;;;;5.53;3.03;;;;;;;;;;2034057;29;20177;-57
2021/04/08 01:04:41;;;;;;;6.27;3.43;;;;;;;;;;2034137;29;20263;-57
2021/04/08 01:05:41;;;;;;;4.50;3.13;;;;;;;;;;2034387;29;20203;-58
2021/04/08 01:06:42;;;;;;;7.93;3.07;;;;;;;;;;2034255;29;20169;-54
2021/04/08 01:07:42;;;;;;;5.13;2.77;;;;;;;;;;2041619;29;20270;-56
2021/04/08 01:08:43;;;;;;;7.40;3.07;;;;;;;;;;2049274;28;20195;-58
2021/04/08 01:09:43;;;;;;;7.40;3.90;;;;;;;;;;2042347;29;20179;-58
2021/04/08 01:10:44;;;;;;;5.77;3.60;;;;;;;;;;2042093;29;20180;-55
2021/04/08 01:11:45;;;;;;;4.47;2.77;;;;;;;;;;2042187;29;20176;-58
2021/04/08 01:12:46;;;;;;;12.77;3.90;;;;;;;;;;2041163;29;20156;-58
2021/04/08 01:13:46;;;;;;;4.10;3.10;;;;;;;;;;2033953;29;20172;-56
2021/04/08 01:14:46;;;;;;;4.60;3.00;;;;;;;;;;2041395;29;20207;-57
2021/04/08 01:15:47;;;;;;;7.53;3.33;;;;;;;;;;2041372;29;20184;-58
2021/04/08 01:16:53;;;;;;;14.10;4.33;;;;;;;;;;2041458;29;20212;-58
2021/04/08 01:17:56;;;;;;;5.83;3.00;;;;;;;;;;2034382;29;20630;-55
2021/04/08 01:19:15;;;;;;;3.60;3.20;;;;;;;;;;2035108;29;20260;-57
2021/04/08 01:20:34;;;;;;;11.10;3.17;;;;;;;;;;2034229;29;20180;-58
2021/04/08 01:21:44;;;;;;;4.53;2.93;;;;;;;;;;2034168;29;20930;-57
2021/04/08 01:22:51;;;;;;;8.27;3.60;;;;;;;;;;2034353;29;20410;-55
2021/04/08 01:23:51;;;;;;;5.43;3.10;;;;;;;;;;2033756;29;20415;-58
2021/04/08 01:24:51;;;;;;;7.13;3.87;;;;;;;;;;2034299;29;20223;-57
2021/04/08 01:26:11;;;;;;;8.97;3.07;;;;;;;;;;2036974;29;20271;-57
2021/04/08 01:27:11;;;;;;;9.17;4.00;;;;;;;;;;2036698;29;20255;-55
2021/04/08 01:28:30;;;;;;;8.87;3.93;;;;;;;;;;2034169;29;20398;-57
2021/04/08 01:29:55;;;;;;;9.00;3.57;;;;;;;;;;2033994;29;20211;-54
2021/04/08 01:30:56;;;;;;;7.37;3.10;;;;;;;;;;2041559;29;20511;-53
2021/04/08 01:31:58;;;;;;;9.93;3.20;;;;;;;;;;2033455;29;21021;-54
2021/04/08 01:32:59;;;;;;;5.23;3.23;;;;;;;;;;2033684;29;20884;-54
2021/04/08 01:34:03;;;;;;;6.43;3.30;;;;;;;;;;2041082;29;20422;-58
2021/04/08 01:35:05;;;;;;;7.90;3.30;;;;;;;;;;2040974;29;20453;-57
2021/04/08 01:36:07;;;;;;;10.07;4.17;;;;;;;;;;2033875;29;20434;-56
2021/04/08 01:37:09;;;;;;;8.80;3.80;;;;;;;;;;2041082;29;20429;-57
2021/04/08 01:38:12;;;;;;;7.63;3.30;;;;;;;;;;2039872;29;20488;-56
2021/04/08 01:39:15;;;;;;;5.03;3.20;;;;;;;;;;2041702;28;20442;-57
2021/04/08 01:40:16;;;;;;;9.00;3.57;;;;;;;;;;2041001;29;20179;-53
2021/04/08 01:41:17;;;;;;;10.00;3.60;;;;;;;;;;2041741;29;20215;-56
2021/04/08 01:42:18;;;;;;;6.47;3.57;;;;;;;;;;2042169;29;20441;-55
2021/04/08 01:43:21;;;;;;;10.07;3.60;;;;;;;;;;2048829;28;20178;-56
2021/04/08 01:44:22;;;;;;;7.00;4.17;;;;;;;;;;2048903;29;20175;-57
2021/04/08 01:45:23;;;;;;;8.83;3.47;;;;;;;;;;2049259;28;20170;-58
2021/04/08 01:46:25;;;;;;;8.17;3.73;;;;;;;;;;2040782;29;20188;-57
2021/04/08 01:47:26;;;;;;;6.13;4.13;;;;;;;;;;2041227;29;20648;-58
2021/04/08 01:48:27;;;;;;;5.20;3.47;;;;;;;;;;2041523;29;20430;-57
2021/04/08 01:49:30;;;;;;;3.77;3.47;;;;;;;;;;2042826;29;20609;-59
2021/04/08 01:50:30;;;;;;;8.23;3.60;;;;;;;;;;2045754;29;20429;-57
2021/04/08 01:51:32;;;;;;;6.77;3.73;;;;;;;;;;2045216;29;20488;-58
2021/04/08 01:52:33;;;;;;;9.50;3.50;;;;;;;;;;2042833;29;20179;-55
2021/04/08 01:53:37;;;;;;;6.77;4.27;;;;;;;;;;2040797;29;20469;-54
2021/04/08 01:54:39;;;;;;;9.63;4.67;;;;;;;;;;2033843;29;20634;-57
2021/04/08 01:55:41;;;;;;;9.63;3.70;;;;;;;;;;2041478;29;20208;-55
2021/04/08 01:56:43;;;;;;;7.13;3.40;;;;;;;;;;2044579;29;20925;-58
2021/04/08 01:57:44;;;;;;;6.30;3.73;;;;;;;;;;2042704;29;20410;-60
2021/04/08 01:58:45;;;;;;;6.13;3.70;;;;;;;;;;2041817;29;20429;-57
2021/04/08 01:59:45;;;;;;;7.20;3.53;;;;;;;;;;2042099;29;20406;-58
2021/04/08 02:00:46;;;;;;;8.23;3.60;;;;;;;;;;2037277;29;20259;-57
2021/04/08 02:01:47;;;;;;;7.83;3.63;;;;;;;;;;2034715;29;20181;-56
2021/04/08 02:02:50;;;;;;;6.87;4.30;;;;;;;;;;2033870;29;20240;-59
2021/04/08 02:03:51;;;;;;;9.33;4.37;;;;;;;;;;2033746;29;20169;-58
2021/04/08 02:04:52;;;;;;;8.80;4.13;;;;;;;;;;2033821;29;21029;-58
2021/04/08 02:05:53;;;;;;;5.43;3.33;;;;;;;;;;2043847;29;20237;-56
2021/04/08 02:06:53;;;;;;;8.70;4.00;;;;;;;;;;2049530;29;20837;-57
2021/04/08 02:07:55;;;;;;;8.27;3.83;;;;;;;;;;2041360;29;20410;-58
2021/04/08 02:08:56;;;;;;;5.83;3.10;;;;;;;;;;2053140;23;20219;-60
2021/04/08 02:09:56;;;;;;;10.13;4.60;;;;;;;;;;2052064;28;20433;-59
2021/04/08 02:10:57;;;;;;;11.63;3.80;;;;;;;;;;2044593;29;20410;-61
2021/04/08 02:11:58;;;;;;;6.00;3.73;;;;;;;;;;2037950;29;20866;-61
2021/04/08 02:12:59;;;;;;;8.30;4.17;;;;;;;;;;2045197;29;20202;-61
2021/04/08 02:13:59;;;;;;;9.33;3.93;;;;;;;;;;2045412;29;20448;-61
2021/04/08 02:15:00;;;;;;;4.80;3.97;;;;;;;;;;2046163;29;20239;-60
2021/04/08 02:16:01;;;;;;;9.63;3.83;;;;;;;;;;2046306;29;20188;-61
2021/04/08 02:17:01;;;;;;;4.90;3.87;;;;;;;;;;2045923;29;20215;-60
2021/04/08 02:18:03;;;;;;;11.60;3.90;;;;;;;;;;2046243;29;20186;-60
2021/04/08 02:19:07;;;;;;;4.27;3.13;;;;;;;;;;2045738;29;20270;-62
2021/04/08 02:20:11;;;;;;;10.77;3.83;;;;;;;;;;2053274;29;20417;-60
2021/04/08 02:21:12;;;;;;;9.27;4.77;;;;;;;;;;2052404;29;20417;-60
2021/04/08 02:22:13;;;;;;;8.30;3.63;;;;;;;;;;2046426;29;20304;-59
2021/04/08 02:23:16;;;;;;;6.07;3.30;;;;;;;;;;2045420;29;20193;-60
2021/04/08 02:24:17;;;;;;;7.63;3.90;;;;;;;;;;2046315;29;20183;-59
2021/04/08 02:25:19;;;;;;;7.17;3.57;;;;;;;;;;2053139;29;20992;-60
2021/04/08 02:26:19;;;;;;;9.47;3.97;;;;;;;;;;2053120;29;20448;-58
2021/04/08 02:27:20;;;;;;;3.87;3.33;;;;;;;;;;2045974;29;20445;-59
2021/04/08 02:28:21;;;;;;;11.03;3.47;;;;;;;;;;2045571;29;20208;-60
2021/04/08 02:29:21;;;;;;;4.10;3.33;;;;;;;;;;2045380;29;20568;-58
2021/04/08 02:30:23;;;;;;;10.73;4.07;;;;;;;;;;2043578;29;20326;-57
2021/04/08 02:31:24;;;;;;;7.73;3.33;;;;;;;;;;2045026;29;20179;-58
2021/04/08 02:32:24;;;;;;;5.33;3.50;;;;;;;;;;2045295;29;20504;-60
2021/04/08 02:33:28;;;;;;;8.77;4.03;;;;;;;;;;2045970;29;20180;-60
2021/04/08 02:34:29;;;;;;;6.37;3.10;;;;;;;;;;2046401;29;20246;-59
2021/04/08 02:35:29;;;;;;;6.70;3.80;;;;;;;;;;2046331;29;20510;-59
2021/04/08 02:36:29;;;;;;;8.70;3.57;;;;;;;;;;2046299;29;20180;-61
2021/04/08 02:37:30;;;;;;;7.87;3.40;;;;;;;;;;2046332;29;20711;-61
2021/04/08 02:38:34;;;;;;;6.67;3.60;;;;;;;;;;2045821;29;20260;-60
2021/04/08 02:39:35;;;;;;;10.67;3.67;;;;;;;;;;2053370;28;20179;-61
2021/04/08 02:40:35;;;;;;;5.80;3.20;;;;;;;;;;2052852;28;20440;-60
2021/04/08 02:41:38;;;;;;;9.13;3.67;;;;;;;;;;2045681;29;20176;-60
2021/04/08 02:42:38;;;;;;;7.60;3.10;;;;;;;;;;2045855;29;20179;-61
2021/04/08 02:43:38;;;;;;;6.63;2.70;;;;;;;;;;2045536;29;20494;-58
2021/04/08 02:44:39;;;;;;;5.47;3.13;;;;;;;;;;2046531;29;20199;-61
2021/04/08 02:45:39;;;;;;;5.70;3.50;;;;;;;;;;2045373;29;20542;-61
2021/04/08 02:46:40;;;;;;;8.37;3.77;;;;;;;;;;2052626;29;20183;-61
2021/04/08 02:47:40;;;;;;;3.87;3.50;;;;;;;;;;2053178;29;20178;-59
2021/04/08 02:48:41;;;;;;;7.10;3.30;;;;;;;;;;2044688;29;20198;-61
2021/04/08 02:49:41;;;;;;;8.73;3.63;;;;;;;;;;2046010;29;20227;-60
2021/04/08 02:50:42;;;;;;;7.13;3.30;;;;;;;;;;2045348;29;20276;-60
2021/04/08 02:51:52;;;;;;;10.40;3.77;;;;;;;;;;2044767;29;20240;-61
2021/04/08 02:53:03;;;;;;;6.10;3.60;;;;;;;;;;2044936;29;20176;-60
2021/04/08 02:54:19;;;;;;;6.17;3.80;;;;;;;;;;2045350;29;20413;-60
2021/04/08 02:55:34;;;;;;;5.40;4.17;;;;;;;;;;2045248;29;20402;-58
2021/04/08 02:56:38;;;;;;;4.20;3.43;;;;;;;;;;2045949;29;20422;-59
2021/04/08 02:57:45;;;;;;;10.07;4.07;;;;;;;;;;2045674;29;20460;-60
2021/04/08 02:58:46;;;;;;;7.40;4.13;;;;;;;;;;2044672;29;20501;-59
2021/04/08 03:00:07;;;;;;;7.00;3.53;;;;;;;;;;2044237;29;20402;-59
2021/04/08 03:01:09;;;;;;;5.00;3.30;;;;;;;;;;2045766;29;20238;-59
2021/04/08 03:02:17;;;;;;;8.73;4.53;;;;;;;;;;2044963;29;20421;-59
2021/04/08 03:03:20;;;;;;;6.57;3.87;;;;;;;;;;2041899;29;20426;-60
2021/04/08 03:04:21;;;;;;;6.63;3.77;;;;;;;;;;2042473;29;20465;-60
2021/04/08 03:05:21;;;;;;;7.80;3.50;;;;;;;;;;2042521;29;20432;-61
2021/04/08 03:06:22;;;;;;;9.37;3.30;;;;;;;;;;2042603;29;20786;-59
2021/04/08 03:07:27;;;;;;;9.60;3.70;;;;;;;;;;2042013;29;20279;-58
2021/04/08 03:08:30;;;;;;;6.87;3.70;;;;;;;;;;2042225;29;20171;-57
2021/04/08 03:09:35;;;;;;;8.50;3.93;;;;;;;;;;2049747;29;20968;-60
2021/04/08 03:10:37;;;;;;;6.17;3.70;;;;;;;;;;2049652;29;20405;-57
2021/04/08 03:11:37;;;;;;;6.70;3.60;;;;;;;;;;2041949;29;20421;-58
2021/04/08 03:12:43;;;;;;;6.13;3.80;;;;;;;;;;2042283;29;20461;-60
2021/04/08 03:13:45;;;;;;;3.53;3.13;;;;;;;;;;2049084;28;20187;-58
2021/04/08 03:14:56;;;;;;;9.33;4.10;;;;;;;;;;2049085;28;20565;-57
2021/04/08 03:15:58;;;;;;;8.53;4.53;;;;;;;;;;2048790;29;20425;-59
2021/04/08 03:17:00;;;;;;;9.40;3.73;;;;;;;;;;2048630;29;20917;-57
2021/04/08 03:18:02;;;;;;;4.07;3.33;;;;;;;;;;2039985;29;20422;-61
2021/04/08 03:19:03;;;;;;;4.90;3.63;;;;;;;;;;2041635;29;20223;-60
2021/04/08 03:20:05;;;;;;;8.17;3.40;;;;;;;;;;2041317;29;20433;-57
2021/04/08 03:21:05;;;;;;;9.80;4.00;;;;;;;;;;2041290;29;20797;-57
2021/04/08 03:22:07;;;;;;;8.00;3.90;;;;;;;;;;2041394;29;20410;-58
2021/04/08 03:23:10;;;;;;;7.20;3.30;;;;;;;;;;2041637;29;20207;-58
2021/04/08 03:24:10;;;;;;;6.23;3.60;;;;;;;;;;2041498;29;20916;-60
2021/04/08 03:25:12;;;;;;;5.53;3.77;;;;;;;;;;2033691;29;20450;-59
2021/04/08 03:26:13;;;;;;;8.20;3.80;;;;;;;;;;2037752;29;20195;-59
2021/04/08 03:27:14;;;;;;;6.60;3.57;;;;;;;;;;2041441;29;20418;-58
2021/04/08 03:28:15;;;;;;;8.13;3.80;;;;;;;;;;2044207;29;20195;-58
2021/04/08 03:29:15;;;;;;;8.27;3.60;;;;;;;;;;2048626;29;20281;-56
2021/04/08 03:30:16;;;;;;;8.20;4.00;;;;;;;;;;2041282;29;20526;-56
2021/04/08 03:31:18;;;;;;;3.70;3.40;;;;;;;;;;2041010;29;20262;-59
2021/04/08 03:32:18;;;;;;;8.33;3.67;;;;;;;;;;2041049;29;20175;-55
2021/04/08 03:33:19;;;;;;;8.07;3.67;;;;;;;;;;2040743;29;20174;-60
2021/04/08 03:34:21;;;;;;;10.10;3.90;;;;;;;;;;2040980;29;20664;-56
2021/04/08 03:35:22;;;;;;;6.30;3.73;;;;;;;;;;2041231;29;20190;-56
2021/04/08 03:36:22;;;;;;;6.27;3.20;;;;;;;;;;2040821;29;20444;-57
2021/04/08 03:37:23;;;;;;;6.80;3.37;;;;;;;;;;2048439;29;20285;-58
2021/04/08 03:38:24;;;;;;;6.50;4.03;;;;;;;;;;2045050;29;20215;-58
2021/04/08 03:39:24;;;;;;;7.10;4.10;;;;;;;;;;2032582;29;20435;-58
2021/04/08 03:40:24;;;;;;;8.87;4.17;;;;;;;;;;2032852;29;20234;-60
2021/04/08 03:41:25;;;;;;;8.97;3.73;;;;;;;;;;2036024;29;20255;-58
2021/04/08 03:42:26;;;;;;;6.43;4.27;;;;;;;;;;2033287;29;20664;-54
2021/04/08 03:43:27;;;;;;;5.77;3.83;;;;;;;;;;2032725;29;20458;-56
2021/04/08 03:44:28;;;;;;;5.60;3.73;;;;;;;;;;2033267;29;20693;-54
2021/04/08 03:45:28;;;;;;;7.13;3.53;;;;;;;;;;2040492;29;20175;-58
2021/04/08 03:46:29;;;;;;;5.27;3.70;;;;;;;;;;2048533;28;20417;-56
2021/04/08 03:47:30;;;;;;;6.67;3.57;;;;;;;;;;2040709;29;20176;-58
2021/04/08 03:48:32;;;;;;;7.27;3.97;;;;;;;;;;2041185;29;20172;-57
2021/04/08 03:49:33;;;;;;;8.03;3.37;;;;;;;;;;2040910;29;20745;-57
2021/04/08 03:50:34;;;;;;;9.57;4.37;;;;;;;;;;2041084;29;20480;-58
2021/04/08 03:51:35;;;;;;;9.30;4.70;;;;;;;;;;2040778;29;20168;-59
2021/04/08 03:52:36;;;;;;;6.17;4.10;;;;;;;;;;2041056;29;20191;-57
2021/04/08 03:53:38;;;;;;;4.47;4.00;;;;;;;;;;2040610;29;20168;-60
2021/04/08 03:54:38;;;;;;;5.53;3.70;;;;;;;;;;2048350;28;20421;-55
2021/04/08 03:55:40;;;;;;;9.13;3.93;;;;;;;;;;2048196;28;20435;-59
2021/04/08 03:56:45;;;;;;;7.80;3.37;;;;;;;;;;2048373;29;20173;-58
2021/04/08 03:57:46;;;;;;;6.40;3.50;;;;;;;;;;2047779;28;20401;-58
2021/04/08 03:58:46;;;;;;;12.97;4.47;;;;;;;;;;2048097;29;20852;-55
2021/04/08 03:59:47;;;;;;;5.03;3.93;;;;;;;;;;2048768;28;20175;-61
2021/04/08 04:00:48;;;;;;;7.23;3.90;;;;;;;;;;2041743;29;20673;-59
2021/04/08 04:01:48;;;;;;;8.23;3.57;;;;;;;;;;2042495;29;20413;-58
2021/04/08 04:02:49;;;;;;;6.67;3.47;;;;;;;;;;2041998;29;20590;-56
2021/04/08 04:03:49;;;;;;;5.83;3.97;;;;;;;;;;2033620;29;20211;-55
2021/04/08 04:04:50;;;;;;;7.13;3.63;;;;;;;;;;2041980;29;20202;-58
2021/04/08 04:05:51;;;;;;;5.03;3.90;;;;;;;;;;2042287;29;20180;-59
2021/04/08 04:06:53;;;;;;;8.90;4.10;;;;;;;;;;2042612;29;20299;-58
2021/04/08 04:07:55;;;;;;;8.17;3.80;;;;;;;;;;2049802;28;20408;-61
2021/04/08 04:08:56;;;;;;;6.67;3.63;;;;;;;;;;2049414;29;20433;-59
2021/04/08 04:09:58;;;;;;;10.00;4.70;;;;;;;;;;2033935;29;20402;-58
2021/04/08 04:10:58;;;;;;;8.17;3.70;;;;;;;;;;2041907;29;20183;-58
2021/04/08 04:11:58;;;;;;;7.93;4.07;;;;;;;;;;2042511;29;20406;-55
2021/04/08 04:12:59;;;;;;;7.03;3.93;;;;;;;;;;2042704;29;20180;-58
2021/04/08 04:14:00;;;;;;;8.93;3.80;;;;;;;;;;2042075;29;20214;-58
2021/04/08 04:15:03;;;;;;;6.53;3.47;;;;;;;;;;2042667;29;20180;-59
2021/04/08 04:16:04;;;;;;;8.63;3.80;;;;;;;;;;2042232;29;20421;-61
2021/04/08 04:17:15;;;;;;;6.03;3.73;;;;;;;;;;2042690;29;20477;-56
2021/04/08 04:18:19;;;;;;;6.93;3.53;;;;;;;;;;2042261;29;20390;-58
2021/04/08 04:19:19;;;;;;;7.87;3.50;;;;;;;;;;2042475;29;20453;-58
2021/04/08 04:20:20;;;;;;;7.27;4.10;;;;;;;;;;2039667;29;20945;-59
2021/04/08 04:21:20;;;;;;;10.33;4.30;;;;;;;;;;2042523;29;20661;-56
2021/04/08 04:22:20;;;;;;;5.00;3.87;;;;;;;;;;2042311;29;20274;-56
2021/04/08 04:23:22;;;;;;;5.47;3.50;;;;;;;;;;2042215;29;20177;-56
2021/04/08 04:24:22;;;;;;;8.10;3.40;;;;;;;;;;2049816;29;20705;-56
2021/04/08 04:25:23;;;;;;;8.97;3.67;;;;;;;;;;2041672;29;20450;-55
2021/04/08 04:26:23;;;;;;;6.57;4.00;;;;;;;;;;2040886;29;20183;-60
2021/04/08 04:27:23;;;;;;;5.20;3.73;;;;;;;;;;2042317;29;20528;-58
2021/04/08 04:28:24;;;;;;;9.43;3.87;;;;;;;;;;2041142;29;20175;-60
2021/04/08 04:29:24;;;;;;;5.80;3.93;;;;;;;;;;2033473;29;20288;-59
2021/04/08 04:30:24;;;;;;;9.23;4.13;;;;;;;;;;2040939;29;20183;-58
2021/04/08 04:31:25;;;;;;;7.47;3.93;;;;;;;;;;2041856;29;20184;-58
2021/04/08 04:32:25;;;;;;;12.87;4.30;;;;;;;;;;2041718;29;20203;-59
2021/04/08 04:33:25;;;;;;;7.53;3.43;;;;;;;;;;2040458;29;20611;-59
2021/04/08 04:34:26;;;;;;;11.67;4.53;;;;;;;;;;2042034;29;20176;-58
2021/04/08 04:35:26;;;;;;;11.80;3.83;;;;;;;;;;2041666;29;20183;-58
2021/04/08 04:36:26;;;;;;;7.30;3.50;;;;;;;;;;2042115;29;20531;-57
2021/04/08 04:37:26;;;;;;;6.33;3.47;;;;;;;;;;2042222;29;20660;-59
2021/04/08 04:38:27;;;;;;;4.87;3.20;;;;;;;;;;2042323;29;20195;-60
2021/04/08 04:39:27;;;;;;;8.30;3.73;;;;;;;;;;2042178;29;20191;-61
2021/04/08 04:40:27;;;;;;;6.10;3.50;;;;;;;;;;2049645;28;20210;-55
2021/04/08 04:41:27;;;;;;;6.63;3.90;;;;;;;;;;2049785;28;20189;-59
2021/04/08 04:42:28;;;;;;;7.37;3.80;;;;;;;;;;2042631;29;20175;-61
2021/04/08 04:43:28;;;;;;;6.00;3.70;;;;;;;;;;2042059;29;20568;-59
2021/04/08 04:44:29;;;;;;;6.20;3.60;;;;;;;;;;2049704;28;20237;-59
2021/04/08 04:45:29;;;;;;;8.10;3.50;;;;;;;;;;2049877;29;20186;-56
2021/04/08 04:46:29;;;;;;;5.03;3.47;;;;;;;;;;2042690;29;20180;-57
2021/04/08 04:47:29;;;;;;;5.83;3.40;;;;;;;;;;2042676;29;20191;-59
2021/04/08 04:48:30;;;;;;;8.10;3.83;;;;;;;;;;2042614;29;20196;-61
2021/04/08 04:49:30;;;;;;;5.63;3.57;;;;;;;;;;2041791;29;20673;-61
2021/04/08 04:50:30;;;;;;;6.30;3.20;;;;;;;;;;2041021;29;20164;-57
2021/04/08 04:51:31;;;;;;;4.17;2.83;;;;;;;;;;2039792;29;20191;-60
2021/04/08 04:52:31;;;;;;;7.57;3.77;;;;;;;;;;2034547;29;20667;-59
2021/04/08 04:53:31;;;;;;;6.30;3.57;;;;;;;;;;2034083;29;20558;-60
2021/04/08 04:54:31;;;;;;;7.90;3.73;;;;;;;;;;2034466;29;20175;-58
2021/04/08 04:55:32;;;;;;;8.13;3.97;;;;;;;;;;2041294;29;20271;-61
2021/04/08 04:56:32;;;;;;;6.37;2.97;;;;;;;;;;2041606;29;20184;-58
2021/04/08 04:57:33;;;;;;;6.40;4.17;;;;;;;;;;2033953;29;20168;-60
2021/04/08 04:58:33;;;;;;;7.30;3.40;;;;;;;;;;2034344;29;20221;-60
2021/04/08 04:59:33;;;;;;;6.80;3.90;;;;;;;;;;2041798;29;20226;-58
2021/04/08 05:00:33;;;;;;;7.73;3.60;;;;;;;;;;2041574;29;20224;-57
2021/04/08 05:01:34;;;;;;;6.67;3.40;;;;;;;;;;2033821;29;20667;-59
2021/04/08 05:02:34;;;;;;;9.20;3.67;;;;;;;;;;2033648;29;20661;-59
2021/04/08 05:03:34;;;;;;;11.33;3.80;;;;;;;;;;2034171;29;20160;-60
2021/04/08 05:04:35;;;;;;;6.33;3.57;;;;;;;;;;2034326;29;20180;-57
2021/04/08 05:05:35;;;;;;;5.03;3.93;;;;;;;;;;2034405;29;20232;-59
2021/04/08 05:06:35;;;;;;;7.10;3.90;;;;;;;;;;2034223;29;20181;-58
2021/04/08 05:07:35;;;;;;;7.43;3.63;;;;;;;;;;2035840;29;20660;-58
2021/04/08 05:08:36;;;;;;;6.27;4.23;;;;;;;;;;2041874;29;20182;-58
2021/04/08 05:09:36;;;;;;;5.33;4.30;;;;;;;;;;2036755;29;20188;-59
2021/04/08 05:10:36;;;;;;;4.50;3.30;;;;;;;;;;2041289;29;20254;-58
2021/04/08 05:11:36;;;;;;;4.13;3.73;;;;;;;;;;2040929;29;20175;-57
2021/04/08 05:12:38;;;;;;;9.80;3.83;;;;;;;;;;2034099;29;20165;-58
2021/04/08 05:13:38;;;;;;;6.60;3.37;;;;;;;;;;2034014;29;20654;-58
2021/04/08 05:14:38;;;;;;;6.77;3.33;;;;;;;;;;2034180;29;20172;-60
2021/04/08 05:15:39;;;;;;;8.83;4.07;;;;;;;;;;2034302;29;20661;-56
2021/04/08 05:16:39;;;;;;;4.67;3.87;;;;;;;;;;2034148;29;20169;-59
2021/04/08 05:17:39;;;;;;;5.67;3.40;;;;;;;;;;2034305;29;20168;-62
2021/04/08 05:18:39;;;;;;;8.93;4.10;;;;;;;;;;2033885;29;20188;-62
2021/04/08 05:19:40;;;;;;;7.80;4.07;;;;;;;;;;2041570;29;20172;-57
2021/04/08 05:20:40;;;;;;;8.03;4.03;;;;;;;;;;2033426;29;20704;-57
2021/04/08 05:21:40;;;;;;;6.30;4.00;;;;;;;;;;2033638;29;20281;-57
2021/04/08 05:22:41;;;;;;;8.47;3.80;;;;;;;;;;2034173;29;20212;-57
2021/04/08 05:23:41;;;;;;;8.10;4.37;;;;;;;;;;2033799;29;20175;-59
2021/04/08 05:24:41;;;;;;;4.93;3.83;;;;;;;;;;2034152;29;20623;-59
2021/04/08 05:25:41;;;;;;;9.93;4.13;;;;;;;;;;2034168;29;20650;-57
2021/04/08 05:26:42;;;;;;;7.80;4.07;;;;;;;;;;2034027;29;20168;-59
2021/04/08 05:27:42;;;;;;;6.50;3.90;;;;;;;;;;2041333;29;20176;-56
2021/04/08 05:28:42;;;;;;;6.20;4.30;;;;;;;;;;2033512;29;20195;-58
2021/04/08 05:29:43;;;;;;;9.30;4.63;;;;;;;;;;2025505;29;20185;-59
2021/04/08 05:30:43;;;;;;;5.00;3.70;;;;;;;;;;2033543;29;20211;-56
2021/04/08 05:31:44;;;;;;;5.53;4.00;;;;;;;;;;2025552;29;20676;-62
2021/04/08 05:32:44;;;;;;;6.87;4.40;;;;;;;;;;2041297;29;20175;-58
2021/04/08 05:33:44;;;;;;;8.23;3.67;;;;;;;;;;2041368;29;20260;-59
2021/04/08 05:34:44;;;;;;;9.07;3.87;;;;;;;;;;2041958;29;20227;-58
2021/04/08 05:35:45;;;;;;;10.77;4.03;;;;;;;;;;2041818;29;20180;-57
2021/04/08 05:36:45;;;;;;;5.30;3.53;;;;;;;;;;2042054;29;20164;-56
2021/04/08 05:37:45;;;;;;;5.60;4.03;;;;;;;;;;2041800;29;20164;-57
2021/04/08 05:38:46;;;;;;;8.00;4.53;;;;;;;;;;2041742;29;20578;-52
2021/04/08 05:39:46;;;;;;;6.17;3.87;;;;;;;;;;2041623;29;20424;-54
2021/04/08 05:40:46;;;;;;;6.23;4.17;;;;;;;;;;2041908;29;20596;-54
2021/04/08 05:41:46;;;;;;;8.60;4.30;;;;;;;;;;2041261;29;20267;-60
2021/04/08 05:42:47;;;;;;;7.23;4.20;;;;;;;;;;2042019;29;20204;-59
2021/04/08 05:43:47;;;;;;;7.57;5.20;;;;;;;;;;2041509;29;20172;-57
2021/04/08 05:44:47;;;;;;;8.90;4.90;;;;;;;;;;2040889;29;20735;-60
2021/04/08 05:45:48;;;;;;;8.37;4.33;;;;;;;;;;2035301;29;20664;-54
2021/04/08 05:46:48;;;;;;;9.13;4.40;;;;;;;;;;2035922;29;20184;-56
2021/04/08 05:47:49;;;;;;;8.30;5.20;;;;;;;;;;2036288;29;20661;-57
2021/04/08 05:48:49;;;;;;;7.27;4.87;;;;;;;;;;2041707;29;20163;-57
2021/04/08 05:49:49;;;;;;;14.20;5.23;;;;;;;;;;2041728;29;20214;-57
2021/04/08 05:50:49;;;;;;;5.17;4.57;;;;;;;;;;2041859;29;20168;-59
2021/04/08 05:51:50;;;;;;;7.60;4.90;;;;;;;;;;2040306;29;20184;-56
2021/04/08 05:52:50;;;;;;;10.77;4.90;;;;;;;;;;2041776;29;20168;-53
2021/04/08 05:53:50;;;;;;;8.47;4.50;;;;;;;;;;2039793;29;20172;-59
2021/04/08 05:54:51;;;;;;;7.17;4.93;;;;;;;;;;2033749;29;20602;-59
2021/04/08 05:55:51;;;;;;;7.60;5.10;;;;;;;;;;2041185;29;20187;-60
2021/04/08 05:56:51;;;;;;;7.73;5.10;;;;;;;;;;2041901;29;20187;-62
2021/04/08 05:57:51;;;;;;;13.30;5.17;;;;;;;;;;2033844;29;20183;-58
2021/04/08 05:58:52;;;;;;;9.53;5.27;;;;;;;;;;2032903;29;20187;-59
2021/04/08 05:59:52;;;;;;;8.37;5.40;;;;;;;;;;2037440;29;20201;-61
2021/04/08 06:00:52;;;;;;;7.33;4.73;;;;;;;;;;2035064;29;20625;-57
2021/04/08 06:01:53;;;;;;;6.90;4.63;;;;;;;;;;2041350;29;20194;-56
2021/04/08 06:02:54;;;;;;;7.30;4.77;;;;;;;;;;2036773;29;20180;-53
2021/04/08 06:03:54;;;;;;;10.50;6.10;;;;;;;;;;2041480;29;20179;-58
2021/04/08 06:04:54;;;;;;;10.43;5.37;;;;;;;;;;2041099;29;20500;-55
2021/04/08 06:05:54;;;;;;;12.17;5.70;;;;;;;;;;2041782;29;20560;-57
2021/04/08 06:06:55;;;;;;;8.13;5.57;;;;;;;;;;2038549;29;20569;-57
2021/04/08 06:07:55;;;;;;;9.57;5.70;;;;;;;;;;2034053;29;20184;-54